createdAt,value
2023-03-29T10:41:13.775Z,6.53
2023-03-29T10:42:24.826Z,6.78
2023-03-29T10:43:40.187Z,6.50
2023-03-29T10:44:51.457Z,6.55
2023-03-29T10:45:57.918Z,6.40
2023-03-29T10:47:23.434Z,6.17
2023-03-29T10:48:34.411Z,5.60
2023-03-29T10:49:47.054Z,6.60
2023-03-29T10:50:57.238Z,6.50
2023-03-29T10:52:14.925Z,6.00
2023-03-29T10:53:36.332Z,6.93
2023-03-29T10:54:43.535Z,5.93
2023-03-29T10:55:58.743Z,6.38
2023-03-29T10:57:10.891Z,6.22
2023-03-29T10:58:27.690Z,6.50
2023-03-29T10:59:37.920Z,6.13
2023-03-29T11:00:51.493Z,6.57
2023-03-29T11:02:20.427Z,9.20
2023-03-29T11:04:03.305Z,8.60
2023-03-29T11:05:24.181Z,8.95
2023-03-29T11:06:40.162Z,8.80
2023-03-29T11:07:57.839Z,8.63
2023-03-29T11:09:24.179Z,8.00
2023-03-29T11:10:46.161Z,7.55
2023-03-29T11:12:15.603Z,6.70
2023-03-29T11:13:30.823Z,7.13
2023-03-29T11:14:43.221Z,5.83
2023-03-29T11:15:59.752Z,6.25
2023-03-29T11:17:18.630Z,6.00
2023-03-29T11:18:40.967Z,6.80
2023-03-29T11:19:59.227Z,6.70
2023-03-29T11:21:11.702Z,6.40
2023-03-29T11:22:24.466Z,6.20
2023-03-29T11:23:41.930Z,5.95
2023-03-29T11:25:06.384Z,6.10
2023-03-29T11:26:18.475Z,6.40
2023-03-29T11:27:32.252Z,5.97
2023-03-29T11:28:45.615Z,6.20
2023-03-29T11:30:19.636Z,6.55
2023-03-29T11:31:38.822Z,6.05
2023-03-29T11:32:55.381Z,5.95
2023-03-29T11:34:24.858Z,6.20
2023-03-29T11:35:45.255Z,6.28
2023-03-29T11:37:03.567Z,6.80
2023-03-29T11:38:28.652Z,6.10
2023-03-29T11:39:45.981Z,6.30
2023-03-29T11:41:02.205Z,6.57
2023-03-29T11:42:15.788Z,6.55
2023-03-29T11:43:28.828Z,6.35
2023-03-29T11:44:37.516Z,6.68
2023-03-29T11:45:46.995Z,7.13
2023-03-29T11:47:00.174Z,6.82
2023-03-29T11:48:09.177Z,7.13
2023-03-29T11:49:23.587Z,7.10
2023-03-29T11:50:34.764Z,7.80
2023-03-29T11:51:46.788Z,8.70
2023-03-29T11:52:56.097Z,9.80
2023-03-29T11:54:09.632Z,9.82
2023-03-29T11:55:25.364Z,10.40
2023-03-29T11:56:37.278Z,8.90
2023-03-29T11:57:47.071Z,7.50
2023-03-29T11:59:03.095Z,9.80
2023-03-29T12:00:21.264Z,9.00
2023-03-29T12:01:33.645Z,8.27
2023-03-29T12:02:43.449Z,8.30
2023-03-29T12:03:55.453Z,7.90
2023-03-29T12:05:05.638Z,8.40
2023-03-29T12:06:19.376Z,7.57
2023-03-29T12:07:31.895Z,8.10
2023-03-29T12:08:40.944Z,8.38
2023-03-29T12:09:51.938Z,8.48
2023-03-29T12:11:07.163Z,8.52
2023-03-29T12:12:24.903Z,9.20
2023-03-29T12:13:36.761Z,7.60
2023-03-29T12:14:56.802Z,6.78
2023-03-29T12:16:12.232Z,8.23
2023-03-29T12:17:23.931Z,6.70
2023-03-29T12:18:33.285Z,7.63
2023-03-29T12:19:43.794Z,7.28
2023-03-29T12:20:57.141Z,7.15
2023-03-29T12:22:04.066Z,7.13
2023-03-29T12:23:18.786Z,7.78
2023-03-29T12:24:27.523Z,7.47
2023-03-29T12:25:39.415Z,7.50
2023-03-29T12:27:22.307Z,8.95
2023-03-29T12:28:49.675Z,8.17
2023-03-29T12:30:28.791Z,8.32
2023-03-29T12:31:41.518Z,8.40
2023-03-29T12:32:58.419Z,7.45
2023-03-29T12:34:31.263Z,8.60
2023-03-29T12:35:46.675Z,8.60
2023-03-29T12:37:10.826Z,7.18
2023-03-29T12:38:28.679Z,7.85
2023-03-29T12:39:39.216Z,8.77
2023-03-29T12:40:47.882Z,8.20
2023-03-29T12:41:56.696Z,7.57
2023-03-29T12:43:09.564Z,8.05
2023-03-29T12:44:19.370Z,7.18
2023-03-29T12:45:49.893Z,7.20
2023-03-29T12:47:00.462Z,7.03
2023-03-29T12:48:08.035Z,7.45
2023-03-29T12:49:21.031Z,7.15
2023-03-29T12:50:54.866Z,7.15
2023-03-29T12:52:04.378Z,7.60
2023-03-29T12:53:20.465Z,6.88
2023-03-29T12:54:35.524Z,6.33
2023-03-29T12:55:56.357Z,6.85
2023-03-29T12:57:09.056Z,7.40
2023-03-29T12:58:35.139Z,6.72
2023-03-29T12:59:48.354Z,6.95
2023-03-29T13:01:08.511Z,6.82
2023-03-29T13:02:47.390Z,6.50
2023-03-29T13:03:54.822Z,6.72
2023-03-29T13:05:03.732Z,7.15
2023-03-29T13:06:15.577Z,6.78
2023-03-29T13:07:53.489Z,7.00
2023-03-29T16:38:07.672Z,7.55
2023-03-29T16:39:16.310Z,8.23
2023-03-29T16:40:22.637Z,7.63
2023-03-29T16:41:29.335Z,8.50
2023-03-29T16:42:36.118Z,8.50
2023-03-29T16:43:42.860Z,8.77
2023-03-29T16:44:49.583Z,8.50
2023-03-29T16:45:56.575Z,9.68
2023-03-29T16:47:03.471Z,8.85
2023-03-29T16:48:08.942Z,8.80
2023-03-29T16:49:19.642Z,8.88
2023-03-29T16:50:26.510Z,8.65
2023-03-29T16:51:33.340Z,8.35
2023-03-29T16:52:40.571Z,8.30
2023-03-29T16:53:45.922Z,8.60
2023-03-29T16:54:54.656Z,8.38
2023-03-29T16:56:01.685Z,9.03
2023-03-29T16:57:09.267Z,8.65
2023-03-29T16:58:16.803Z,9.13
2023-03-29T16:59:23.558Z,9.52
2023-03-29T17:00:30.817Z,9.32
2023-03-29T17:01:37.757Z,10.07
2023-03-29T17:02:44.580Z,9.68
2023-03-29T17:03:51.294Z,10.75
2023-03-29T17:04:56.810Z,10.45
2023-03-29T17:06:04.019Z,10.20
2023-03-29T17:07:10.962Z,9.57
2023-03-29T17:08:16.428Z,9.30
2023-03-29T17:09:23.276Z,10.45
2023-03-29T17:10:31.728Z,9.05
2023-03-29T17:11:38.669Z,9.45
2023-03-29T17:12:45.445Z,9.23
2023-03-29T17:13:50.803Z,9.63
2023-03-29T17:14:57.572Z,9.35
2023-03-29T17:16:03.367Z,9.80
2023-03-29T17:17:10.818Z,9.82
2023-03-29T17:18:17.645Z,9.10
2023-03-29T17:19:24.410Z,8.80
2023-03-29T17:20:29.900Z,9.15
2023-03-29T17:21:36.821Z,9.20
2023-03-29T17:22:43.977Z,8.90
2023-03-29T17:23:49.331Z,9.43
2023-03-29T17:24:56.153Z,8.68
2023-03-29T17:26:05.047Z,9.18
2023-03-29T17:27:12.043Z,9.40
2023-03-29T17:28:17.460Z,8.93
2023-03-29T17:29:24.182Z,8.63
2023-03-29T17:30:29.644Z,8.07
2023-03-29T17:31:37.793Z,9.10
2023-03-29T17:32:43.236Z,8.57
2023-03-29T17:33:52.233Z,8.35
2023-03-29T17:35:00.766Z,8.00
2023-03-29T17:36:07.573Z,7.60
2023-03-29T17:37:14.695Z,8.20
2023-03-29T17:38:21.800Z,8.30
2023-03-29T17:39:29.121Z,8.27
2023-03-29T17:40:34.440Z,7.67
2023-03-29T17:41:43.550Z,7.75
2023-03-29T17:42:49.693Z,7.82
2023-03-29T17:43:56.385Z,7.50
2023-03-29T17:45:01.783Z,7.90
2023-03-29T17:46:08.856Z,8.20
2023-03-29T17:47:15.554Z,7.30
2023-03-29T17:48:22.768Z,7.90
2023-03-29T17:49:31.505Z,8.02
2023-03-29T17:50:38.336Z,8.52
2023-03-29T17:51:45.165Z,7.67
2023-03-29T17:52:50.710Z,8.10
2023-03-29T17:53:58.643Z,8.73
2023-03-29T17:55:04.115Z,8.52
2023-03-29T17:56:11.821Z,8.68
2023-03-29T17:57:20.356Z,8.70
2023-03-29T17:58:27.108Z,8.27
2023-03-29T17:59:33.808Z,8.70
2023-03-29T18:00:39.528Z,8.77
2023-03-29T18:01:46.459Z,8.93
2023-03-29T18:02:53.212Z,9.00
2023-03-29T18:04:00.058Z,9.05
2023-03-29T18:05:06.065Z,8.25
2023-03-29T18:06:13.072Z,8.70
2023-03-29T18:07:18.949Z,8.77
2023-03-29T18:08:25.606Z,8.07
2023-03-29T18:09:31.155Z,8.60
2023-03-29T18:10:38.326Z,8.77
2023-03-29T18:11:43.672Z,9.85
2023-03-29T18:12:52.137Z,9.43
2023-03-29T18:14:01.671Z,10.03
2023-03-29T18:15:08.969Z,9.85
2023-03-29T18:16:14.396Z,10.25
2023-03-29T18:17:21.116Z,9.77
2023-03-29T18:18:28.241Z,10.05
2023-03-29T18:19:34.997Z,10.38
2023-03-29T18:20:43.625Z,9.63
2023-03-29T18:21:50.329Z,10.15
2023-03-29T18:22:55.721Z,9.80
2023-03-29T18:24:02.551Z,9.25
2023-03-29T18:25:08.953Z,8.97
2023-03-29T18:26:16.208Z,8.85
2023-03-29T18:27:22.054Z,8.75
2023-03-29T18:28:30.471Z,8.57
2023-03-29T18:29:35.980Z,8.65
2023-03-29T18:30:42.722Z,9.32
2023-03-29T18:31:49.773Z,8.75
2023-03-29T18:32:56.617Z,9.07
2023-03-29T18:34:03.687Z,9.20
2023-03-29T18:35:11.281Z,9.98
2023-03-29T18:36:18.284Z,13.67
2023-03-29T18:37:25.193Z,18.17
2023-03-29T18:38:31.151Z,18.25
2023-03-29T18:39:38.764Z,18.38
2023-03-29T18:40:45.450Z,19.45
2023-03-29T18:41:52.095Z,20.00
2023-03-29T18:42:57.401Z,19.92
2023-03-29T18:44:05.785Z,20.27
2023-03-29T18:45:13.348Z,19.75
2023-03-29T18:46:18.769Z,20.27
2023-03-29T18:47:25.420Z,19.00
2023-03-29T18:48:31.022Z,20.65
2023-03-29T18:49:38.097Z,20.55
2023-03-29T18:50:46.842Z,20.77
2023-03-29T18:51:53.506Z,20.50
2023-03-29T18:52:58.771Z,20.65
2023-03-29T18:54:05.773Z,21.35
2023-03-29T18:55:11.802Z,22.00
2023-03-29T18:56:18.482Z,22.52
2023-03-29T18:57:25.175Z,20.98
2023-03-29T18:58:30.666Z,21.60
2023-03-29T18:59:39.150Z,21.70
2023-03-29T19:00:45.353Z,21.90
2023-03-29T19:01:52.043Z,21.95
2023-03-29T19:02:58.749Z,22.80
2023-03-29T19:04:05.439Z,23.02
2023-03-29T19:05:12.793Z,21.95
2023-03-29T19:06:19.496Z,22.02
2023-03-29T19:07:26.110Z,22.05
2023-03-29T19:08:34.398Z,21.48
2023-03-29T19:09:39.710Z,21.63
2023-03-29T19:10:46.486Z,20.40
2023-03-29T19:11:53.160Z,20.05
2023-03-29T19:12:59.806Z,21.33
2023-03-29T19:14:06.625Z,21.30
2023-03-29T19:15:16.070Z,19.65
2023-03-29T19:16:21.955Z,20.15
2023-03-29T19:17:29.171Z,18.60
2023-03-29T19:18:35.990Z,19.73
2023-03-29T19:19:47.379Z,19.30
2023-03-29T19:20:55.592Z,18.83
2023-03-29T19:22:02.267Z,19.13
2023-03-29T19:23:07.666Z,18.63
2023-03-29T19:24:14.412Z,21.70
2023-03-29T19:25:21.224Z,20.42
2023-03-29T19:26:26.824Z,21.25
2023-03-29T19:27:33.612Z,21.65
2023-03-29T19:28:40.363Z,19.77
2023-03-29T19:29:45.636Z,19.95
2023-03-29T19:30:54.325Z,20.35
2023-03-29T19:32:01.055Z,20.63
2023-03-29T19:33:07.929Z,21.23
2023-03-29T19:34:14.656Z,20.08
2023-03-29T19:35:20.154Z,19.67
2023-03-29T19:36:26.805Z,20.38
2023-03-29T19:37:33.477Z,20.17
2023-03-29T19:38:40.200Z,21.10
2023-03-29T19:39:46.206Z,20.92
2023-03-29T19:40:54.131Z,20.50
2023-03-29T19:41:59.689Z,21.70
2023-03-29T19:43:06.328Z,21.43
2023-03-29T19:44:13.135Z,19.75
2023-03-29T19:45:18.544Z,20.50
2023-03-29T19:46:26.944Z,21.27
2023-03-29T19:47:33.909Z,20.75
2023-03-29T19:48:39.407Z,20.10
2023-03-29T19:49:47.973Z,20.75
2023-03-29T19:50:53.470Z,22.77
2023-03-29T19:52:00.107Z,21.38
2023-03-29T19:53:05.502Z,22.98
2023-03-29T19:54:14.235Z,21.33
2023-03-29T19:55:21.115Z,20.20
2023-03-29T19:56:29.392Z,21.50
2023-03-29T19:57:36.097Z,22.70
2023-03-29T19:58:41.419Z,24.00
2023-03-29T19:59:48.092Z,22.95
2023-03-29T20:00:59.523Z,21.98
2023-03-29T20:02:06.678Z,23.42
2023-03-29T20:03:15.447Z,23.63
2023-03-29T20:04:22.599Z,24.30
2023-03-29T20:05:28.086Z,23.70
2023-03-29T20:06:34.779Z,21.63
2023-03-29T20:07:40.132Z,23.98
2023-03-29T20:08:46.832Z,22.70
2023-03-29T20:09:52.157Z,22.83
2023-03-29T20:11:02.239Z,23.70
2023-03-29T20:12:08.006Z,22.52
2023-03-29T20:13:19.009Z,23.85
2023-03-29T20:14:31.427Z,24.65
2023-03-29T20:15:36.673Z,24.13
2023-03-29T20:16:44.194Z,22.80
2023-03-29T20:17:52.943Z,22.73
2023-03-29T20:19:03.375Z,22.80
2023-03-29T20:20:12.002Z,23.45
2023-03-29T20:21:18.204Z,23.92
2023-03-29T20:22:27.445Z,24.55
2023-03-29T20:23:34.035Z,23.52
2023-03-29T20:24:40.769Z,24.13
2023-03-29T20:25:47.733Z,23.05
2023-03-29T20:26:53.086Z,23.08
2023-03-29T20:28:01.160Z,23.53
2023-03-29T20:29:06.644Z,22.88
2023-03-29T20:30:14.168Z,22.25
2023-03-29T20:31:19.605Z,23.33
2023-03-29T20:32:26.304Z,23.20
2023-03-29T20:33:33.401Z,23.23
2023-03-29T20:34:40.211Z,22.02
2023-03-29T20:35:48.675Z,24.50
2023-03-29T20:36:56.638Z,23.45
2023-03-29T20:38:03.436Z,23.63
2023-03-29T20:39:09.781Z,23.67
2023-03-29T20:40:17.166Z,24.52
2023-03-29T20:41:22.490Z,24.10
2023-03-29T20:42:31.291Z,25.42
2023-03-29T20:43:38.808Z,24.58
2023-03-29T20:44:51.911Z,25.98
2023-03-29T20:45:57.306Z,25.33
2023-03-29T20:47:08.059Z,24.73
2023-03-29T20:48:13.489Z,26.92
2023-03-29T20:49:27.599Z,24.00
2023-03-29T20:50:34.332Z,23.77
2023-03-29T20:51:39.866Z,24.00
2023-03-29T20:52:46.490Z,27.10
2023-03-29T20:53:53.343Z,24.73
2023-03-29T20:55:00.709Z,25.95
2023-03-29T20:56:08.205Z,26.73
2023-03-29T20:57:16.474Z,24.60
2023-03-29T20:58:21.841Z,24.98
2023-03-29T20:59:29.308Z,24.63
2023-03-29T21:00:39.100Z,24.55
2023-03-29T21:01:44.415Z,24.57
2023-03-29T21:02:51.225Z,22.77
2023-03-29T21:03:58.267Z,21.80
2023-03-29T21:05:05.730Z,24.63
2023-03-29T21:06:15.516Z,26.00
2023-03-29T21:07:23.090Z,24.40
2023-03-29T21:08:30.203Z,24.75
2023-03-29T21:09:38.362Z,24.67
2023-03-29T21:10:45.028Z,25.23
2023-03-29T21:11:50.404Z,24.92
2023-03-29T21:13:01.503Z,24.63
2023-03-29T21:14:06.957Z,25.38
2023-03-29T21:15:14.938Z,24.63
2023-03-29T21:16:22.020Z,23.65
2023-03-29T21:17:28.887Z,25.08
2023-03-29T21:18:34.272Z,25.23
2023-03-29T21:19:42.382Z,25.05
2023-03-29T21:20:51.179Z,24.55
2023-03-29T21:21:57.812Z,25.15
2023-03-29T21:23:03.118Z,22.52
2023-03-29T21:24:10.334Z,24.17
2023-03-29T21:25:17.592Z,25.40
2023-03-29T21:26:24.281Z,25.58
2023-03-29T21:27:30.909Z,25.95
2023-03-29T21:28:39.056Z,25.70
2023-03-29T21:29:45.719Z,27.17
2023-03-29T21:30:51.162Z,27.85
2023-03-29T21:31:57.892Z,27.38
2023-03-29T21:33:03.232Z,27.38
2023-03-29T21:34:09.985Z,27.40
2023-03-29T21:35:15.518Z,26.97
2023-03-29T21:36:23.925Z,26.60
2023-03-29T21:37:29.208Z,26.17
2023-03-29T21:38:36.568Z,27.70
2023-03-29T21:39:43.807Z,31.35
2023-03-29T21:40:49.182Z,31.52
2023-03-29T21:41:55.846Z,30.25
2023-03-29T21:43:01.111Z,30.75
2023-03-29T21:44:07.780Z,29.88
2023-03-29T21:45:14.007Z,28.73
2023-03-29T21:46:20.746Z,30.57
2023-03-29T21:47:26.127Z,33.30
2023-03-29T21:48:32.783Z,30.60
2023-03-29T21:49:38.058Z,29.38
2023-03-29T21:50:44.773Z,29.83
2023-03-29T21:51:51.886Z,28.45
2023-03-29T21:52:58.656Z,28.40
2023-03-29T21:54:03.984Z,27.10
2023-03-29T21:55:11.469Z,27.40
2023-03-29T21:56:18.107Z,27.98
2023-03-29T21:57:23.419Z,27.33
2023-03-29T21:58:30.184Z,29.17
2023-03-29T21:59:36.941Z,27.48
2023-03-29T22:00:42.221Z,27.30
2023-03-29T22:01:48.925Z,27.17
2023-03-29T22:02:54.398Z,26.20
2023-03-29T22:04:01.163Z,27.40
2023-03-29T22:05:08.454Z,25.67
2023-03-29T22:06:16.408Z,26.30
2023-03-29T22:07:25.245Z,26.85
2023-03-29T22:08:30.575Z,25.97
2023-03-29T22:09:37.957Z,26.73
2023-03-29T22:10:43.475Z,27.30
2023-03-29T22:11:50.153Z,27.63
2023-03-29T22:12:55.472Z,28.38
2023-03-29T22:14:02.246Z,28.60
2023-03-29T22:15:08.493Z,28.75
2023-03-29T22:16:21.320Z,31.75
2023-03-29T22:17:28.110Z,31.67
2023-03-29T22:18:44.132Z,31.42
2023-03-29T22:19:49.517Z,30.20
2023-03-29T22:20:56.558Z,30.67
2023-03-29T22:22:03.446Z,29.63
2023-03-29T22:23:10.429Z,31.20
2023-03-29T22:24:17.103Z,30.55
2023-03-29T22:25:24.258Z,33.03
2023-03-29T22:26:32.121Z,31.85
2023-03-29T22:27:37.599Z,31.85
2023-03-29T22:28:44.329Z,31.52
2023-03-29T22:29:51.044Z,31.33
2023-03-29T22:30:56.355Z,30.03
2023-03-29T22:32:03.147Z,29.40
2023-03-29T22:33:08.691Z,31.25
2023-03-29T22:34:15.429Z,30.00
2023-03-29T22:35:20.845Z,28.63
2023-03-29T22:36:29.007Z,33.00
2023-03-29T22:37:34.328Z,34.13
2023-03-29T22:38:42.998Z,29.70
2023-03-29T22:39:48.914Z,30.92
2023-03-29T22:40:55.669Z,29.58
2023-03-29T22:42:02.430Z,32.93
2023-03-29T22:43:07.971Z,35.45
2023-03-29T22:44:14.837Z,31.55
2023-03-29T22:45:20.286Z,34.42
2023-03-29T22:46:27.859Z,31.58
2023-03-29T22:47:33.526Z,34.35
2023-03-29T22:48:40.681Z,30.98
2023-03-29T22:49:46.093Z,30.95
2023-03-29T22:50:52.794Z,31.02
2023-03-29T22:51:58.238Z,30.50
2023-03-29T22:53:04.904Z,32.13
2023-03-29T22:54:12.082Z,33.40
2023-03-29T22:55:19.100Z,31.13
2023-03-29T22:56:26.331Z,32.90
2023-03-29T22:57:31.628Z,31.48
2023-03-29T22:58:38.417Z,32.22
2023-03-29T22:59:43.872Z,32.00
2023-03-29T23:00:50.806Z,32.92
2023-03-29T23:01:56.270Z,31.80
2023-03-29T23:03:03.147Z,31.70
2023-03-29T23:04:08.808Z,31.73
2023-03-29T23:05:15.668Z,32.90
2023-03-29T23:06:21.025Z,30.00
2023-03-29T23:07:27.811Z,32.00
2023-03-29T23:08:34.186Z,30.92
2023-03-29T23:09:42.655Z,30.45
2023-03-29T23:10:49.211Z,31.10
2023-03-29T23:11:55.956Z,35.13
2023-03-29T23:13:10.379Z,32.83
2023-03-29T23:14:17.194Z,34.40
2023-03-29T23:15:24.276Z,33.17
2023-03-29T23:16:31.252Z,34.25
2023-03-29T23:17:36.844Z,32.58
2023-03-29T23:18:43.514Z,32.30
2023-03-29T23:19:49.424Z,32.33
2023-03-29T23:20:58.073Z,30.70
2023-03-29T23:22:03.581Z,31.00
2023-03-29T23:23:10.794Z,29.23
2023-03-29T23:24:19.230Z,28.63
2023-03-29T23:25:28.081Z,27.92
2023-03-29T23:26:33.428Z,27.70
2023-03-29T23:27:40.167Z,28.52
2023-03-29T23:28:46.291Z,28.05
2023-03-29T23:29:53.016Z,27.80
2023-03-29T23:31:01.825Z,27.95
2023-03-29T23:32:07.648Z,27.02
2023-03-29T23:33:16.058Z,26.88
2023-03-29T23:34:21.806Z,27.90
2023-03-29T23:35:28.638Z,26.98
2023-03-29T23:36:35.374Z,28.52
2023-03-29T23:37:41.076Z,28.10
2023-03-29T23:38:49.440Z,28.45
2023-03-29T23:39:55.259Z,28.08
2023-03-29T23:41:05.036Z,27.90
2023-03-29T23:42:10.934Z,28.02
2023-03-29T23:43:18.558Z,27.33
2023-03-29T23:44:24.110Z,28.35
2023-03-29T23:45:31.200Z,29.10
2023-03-29T23:46:36.633Z,28.77
2023-03-29T23:47:43.979Z,30.25
2023-03-29T23:48:51.926Z,28.90
2023-03-29T23:49:57.350Z,28.45
2023-03-29T23:51:04.198Z,27.65
2023-03-29T23:52:09.747Z,28.27
2023-03-29T23:53:17.345Z,29.48
2023-03-29T23:54:24.067Z,29.80
2023-03-29T23:55:29.497Z,27.65
2023-03-29T23:56:38.137Z,29.30
2023-03-29T23:57:43.609Z,30.55
2023-03-29T23:58:50.377Z,29.98
2023-03-29T23:59:57.246Z,29.17
